createdAt,value
2018-02-12T00:00:38.974Z,8.48
2018-02-12T00:03:05.597Z,8.75
2018-02-12T00:05:32.240Z,7.62
2018-02-12T00:07:58.889Z,10.85
2018-02-12T00:10:25.625Z,8.00
2018-02-12T00:12:52.237Z,8.45
2018-02-12T00:15:18.856Z,9.00
2018-02-12T00:17:45.470Z,7.03
2018-02-12T00:20:12.077Z,7.22
2018-02-12T00:22:38.717Z,8.00
2018-02-12T00:25:05.354Z,7.87
2018-02-12T00:27:31.996Z,7.97
2018-02-12T00:29:58.614Z,7.60
2018-02-12T00:32:25.285Z,8.05
2018-02-12T00:34:51.888Z,7.30
2018-02-12T00:37:18.553Z,7.80
2018-02-12T00:39:45.189Z,7.45
2018-02-12T00:42:11.805Z,7.82
2018-02-12T00:44:38.473Z,7.75
2018-02-12T00:47:05.105Z,7.37
2018-02-12T00:49:31.725Z,7.40
2018-02-12T00:51:58.455Z,7.43
2018-02-12T00:54:25.128Z,7.65
2018-02-12T00:56:51.741Z,7.60
2018-02-12T00:59:18.455Z,7.50
2018-02-12T01:01:45.062Z,8.40
2018-02-12T01:04:11.677Z,7.43
2018-02-12T01:06:38.366Z,7.47
2018-02-12T01:09:04.961Z,6.75
2018-02-12T01:11:31.607Z,7.80
2018-02-12T01:13:58.229Z,7.40
2018-02-12T01:16:24.837Z,6.68
2018-02-12T01:18:51.522Z,8.07
2018-02-12T01:21:18.125Z,7.70
2018-02-12T01:23:44.797Z,6.87
2018-02-12T01:26:11.437Z,6.57
2018-02-12T01:28:38.120Z,6.85
2018-02-12T01:31:04.712Z,7.28
2018-02-12T01:33:31.338Z,7.32
2018-02-12T01:35:58.004Z,8.05
2018-02-12T01:38:24.657Z,7.35
2018-02-12T01:40:51.378Z,7.55
2018-02-12T01:43:18.013Z,7.57
2018-02-12T01:45:44.637Z,7.35
2018-02-12T01:48:11.285Z,7.20
2018-02-12T01:50:37.890Z,7.35
2018-02-12T01:53:04.572Z,7.15
2018-02-12T01:55:31.209Z,8.10
2018-02-12T01:57:57.993Z,6.78
2018-02-12T02:00:24.601Z,6.50
2018-02-12T02:02:51.256Z,6.90
2018-02-12T02:05:17.892Z,6.15
2018-02-12T02:07:44.510Z,6.97
2018-02-12T02:10:11.148Z,6.60
2018-02-12T02:12:37.789Z,6.72
2018-02-12T02:15:04.430Z,6.07
2018-02-12T02:17:31.066Z,6.28
2018-02-12T02:19:57.673Z,5.55
2018-02-12T02:22:24.342Z,5.57
2018-02-12T02:24:50.949Z,5.50
2018-02-12T02:27:17.554Z,5.72
2018-02-12T02:29:44.198Z,5.30
2018-02-12T02:32:10.894Z,5.03
2018-02-12T02:34:37.580Z,4.50
2018-02-12T02:37:04.202Z,4.75
2018-02-12T02:39:30.812Z,4.28
2018-02-12T02:41:57.425Z,4.80
2018-02-12T02:44:24.045Z,5.00
2018-02-12T02:46:50.734Z,5.22
2018-02-12T02:49:17.337Z,5.62
2018-02-12T02:51:43.953Z,5.10
2018-02-12T02:54:10.649Z,4.90
2018-02-12T02:56:37.291Z,4.95
2018-02-12T02:59:03.975Z,4.60
2018-02-12T03:01:30.569Z,5.53
2018-02-12T03:03:57.190Z,4.80
2018-02-12T03:06:23.844Z,5.40
2018-02-12T03:08:50.485Z,5.78
2018-02-12T03:11:17.117Z,5.07
2018-02-12T03:13:43.756Z,5.50
2018-02-12T03:16:10.369Z,5.47
2018-02-12T03:18:37.083Z,5.18
2018-02-12T03:21:03.721Z,5.25
2018-02-12T03:23:30.326Z,6.30
2018-02-12T03:25:56.925Z,5.43
2018-02-12T03:28:23.599Z,5.43
2018-02-12T03:30:50.279Z,5.35
2018-02-12T03:33:16.977Z,5.45
2018-02-12T03:35:43.596Z,5.40
2018-02-12T03:38:10.257Z,5.97
2018-02-12T03:40:36.865Z,5.40
2018-02-12T03:43:03.489Z,5.10
2018-02-12T03:45:30.092Z,5.47
2018-02-12T03:47:56.694Z,5.55
2018-02-12T03:50:23.354Z,5.70
2018-02-12T03:52:49.984Z,5.28
2018-02-12T03:55:16.634Z,5.30
2018-02-12T03:57:43.250Z,6.15
2018-02-12T04:00:09.861Z,6.43
2018-02-12T04:02:36.540Z,5.97
2018-02-12T04:05:03.192Z,6.05
2018-02-12T04:07:29.789Z,6.28
2018-02-12T04:09:56.398Z,6.75
2018-02-12T04:12:23.022Z,5.22
2018-02-12T04:14:49.625Z,5.55
2018-02-12T04:17:16.273Z,5.87
2018-02-12T04:19:42.897Z,6.40
2018-02-12T04:22:09.501Z,5.65
2018-02-12T04:24:36.110Z,6.55
2018-02-12T04:27:02.845Z,5.80
2018-02-12T04:29:29.453Z,6.05
2018-02-12T04:31:56.062Z,5.97
2018-02-12T04:34:22.682Z,6.18
2018-02-12T04:36:49.285Z,5.85
2018-02-12T04:39:15.889Z,5.75
2018-02-12T04:41:42.570Z,5.90
2018-02-12T04:44:09.175Z,6.03
2018-02-12T04:46:35.783Z,5.70
2018-02-12T04:49:02.406Z,4.87
2018-02-12T04:51:29.116Z,6.75
2018-02-12T04:53:55.757Z,5.82
2018-02-12T04:56:22.388Z,5.80
2018-02-12T04:58:49.038Z,5.87
2018-02-12T05:01:15.722Z,6.00
2018-02-12T05:03:42.417Z,5.60
2018-02-12T05:06:09.021Z,5.87
2018-02-12T05:08:35.692Z,6.43
2018-02-12T05:11:02.323Z,7.43
2018-02-12T05:13:28.934Z,7.28
2018-02-12T05:15:55.545Z,6.82
2018-02-12T05:18:22.185Z,6.40
2018-02-12T05:20:48.815Z,7.20
2018-02-12T05:23:15.436Z,6.78
2018-02-12T05:25:42.049Z,7.53
2018-02-12T05:28:08.665Z,7.00
2018-02-12T05:30:35.270Z,7.80
2018-02-12T05:33:02.031Z,7.68
2018-02-12T05:35:29.623Z,10.25
2018-02-12T05:37:56.282Z,7.50
2018-02-12T05:40:23.068Z,7.72
2018-02-12T05:42:49.670Z,7.22
2018-02-12T05:45:16.318Z,6.55
2018-02-12T05:47:43.104Z,8.10
2018-02-12T05:50:09.949Z,7.95
2018-02-12T05:52:36.565Z,8.18
2018-02-12T05:55:03.269Z,7.10
2018-02-12T05:57:29.881Z,8.15
2018-02-12T05:59:56.510Z,8.15
2018-02-12T06:02:23.117Z,8.60
2018-02-12T06:04:49.841Z,6.75
2018-02-12T06:07:16.464Z,7.05
2018-02-12T06:09:43.078Z,7.85
2018-02-12T06:12:09.791Z,6.82
2018-02-12T06:14:36.397Z,7.65
2018-02-12T06:17:03.031Z,7.10
2018-02-12T06:19:29.645Z,8.43
2018-02-12T06:21:56.306Z,7.68
2018-02-12T06:24:22.912Z,6.78
2018-02-12T06:26:49.545Z,6.78
2018-02-12T06:29:16.193Z,7.30
2018-02-12T06:31:42.820Z,6.25
2018-02-12T06:34:09.439Z,6.93
2018-02-12T06:36:36.047Z,6.30
2018-02-12T06:39:02.644Z,6.93
2018-02-12T06:41:29.270Z,7.20
2018-02-12T06:43:55.961Z,6.72
2018-02-12T06:46:22.636Z,5.70
2018-02-12T06:48:49.249Z,8.20
2018-02-12T06:51:15.876Z,8.50
2018-02-12T06:53:42.494Z,8.48
2018-02-12T06:56:09.158Z,8.98
2018-02-12T06:58:35.831Z,8.95
2018-02-12T07:01:02.547Z,9.30
2018-02-12T07:03:29.156Z,9.82
2018-02-12T07:05:55.851Z,9.65
2018-02-12T07:08:22.559Z,9.55
2018-02-12T07:10:49.189Z,9.80
2018-02-12T07:13:15.797Z,9.60
2018-02-12T07:15:42.510Z,9.32
2018-02-12T07:18:09.113Z,9.90
2018-02-12T07:20:35.726Z,9.32
2018-02-12T07:23:02.351Z,9.80
2018-02-12T07:25:29.068Z,9.90
2018-02-12T07:27:55.706Z,10.02
2018-02-12T07:30:22.325Z,9.35
2018-02-12T07:32:48.985Z,9.18
2018-02-12T07:35:15.585Z,9.55
2018-02-12T07:37:42.198Z,9.05
2018-02-12T07:40:08.862Z,9.48
2018-02-12T07:42:35.606Z,9.70
2018-02-12T07:45:02.209Z,8.88
2018-02-12T07:47:28.821Z,11.00
2018-02-12T07:49:55.562Z,9.52
2018-02-12T07:52:22.262Z,10.60
2018-02-12T07:54:48.941Z,9.25
2018-02-12T07:57:15.560Z,9.75
2018-02-12T07:59:42.170Z,10.00
2018-02-12T08:02:08.773Z,9.30
2018-02-12T08:04:35.401Z,10.05
2018-02-12T08:07:02.009Z,9.60
2018-02-12T08:09:28.635Z,8.65
2018-02-12T08:11:55.250Z,8.07
2018-02-12T08:14:21.952Z,8.80
2018-02-12T08:16:48.653Z,9.20
2018-02-12T08:19:15.289Z,8.80
2018-02-12T08:21:41.898Z,8.60
2018-02-12T08:24:08.576Z,8.15
2018-02-12T08:26:35.199Z,9.63
2018-02-12T08:29:01.805Z,8.45
2018-02-12T08:31:28.408Z,8.30
2018-02-12T08:33:55.126Z,9.38
2018-02-12T08:36:21.777Z,8.07
2018-02-12T08:38:48.446Z,7.90
2018-02-12T08:41:15.146Z,7.62
2018-02-12T08:43:41.785Z,8.93
2018-02-12T08:46:08.464Z,8.90
2018-02-12T08:48:35.104Z,8.68
2018-02-12T08:51:02.626Z,8.70
2018-02-12T08:53:29.233Z,8.70
2018-02-12T08:55:55.897Z,9.20
2018-02-12T08:58:22.582Z,9.25
2018-02-12T09:00:49.204Z,8.75
2018-02-12T09:03:15.809Z,8.73
2018-02-12T09:05:42.463Z,8.30
2018-02-12T09:08:09.138Z,7.93
2018-02-12T09:10:35.833Z,8.10
2018-02-12T09:13:02.437Z,7.97
2018-02-12T09:15:29.110Z,7.75
2018-02-12T09:17:55.717Z,8.20
2018-02-12T09:20:22.436Z,8.00
2018-02-12T09:22:49.142Z,8.00
2018-02-12T09:25:15.746Z,8.20
2018-02-12T09:27:42.353Z,8.80
2018-02-12T09:30:09.095Z,9.10
2018-02-12T09:32:35.793Z,8.88
2018-02-12T09:35:02.394Z,7.60
2018-02-12T09:37:29.022Z,7.20
2018-02-12T09:39:55.625Z,7.68
2018-02-12T09:42:22.245Z,6.90
2018-02-12T09:44:48.857Z,8.05
2018-02-12T09:47:15.460Z,6.72
2018-02-12T09:49:42.079Z,7.72
2018-02-12T09:52:08.689Z,7.57
2018-02-12T09:54:35.305Z,8.15
2018-02-12T09:57:01.930Z,7.78
2018-02-12T09:59:28.537Z,8.05
2018-02-12T10:01:55.137Z,7.78
2018-02-12T10:04:21.752Z,7.45
2018-02-12T10:06:48.353Z,8.27
2018-02-12T10:09:14.979Z,8.23
2018-02-12T10:11:41.581Z,9.18
2018-02-12T10:14:08.182Z,8.73
2018-02-12T10:16:34.799Z,9.35
2018-02-12T10:19:01.468Z,9.95
2018-02-12T10:21:28.107Z,10.80
2018-02-12T10:23:54.729Z,11.12
2018-02-12T10:26:21.337Z,10.70
2018-02-12T10:28:47.976Z,9.80
2018-02-12T10:31:14.614Z,10.40
2018-02-12T10:33:41.257Z,8.77
2018-02-12T10:36:07.910Z,8.82
2018-02-12T10:38:34.534Z,8.90
2018-02-12T10:41:01.178Z,9.13
2018-02-12T10:43:27.806Z,8.40
2018-02-12T10:45:54.414Z,9.18
2018-02-12T10:48:21.018Z,8.75
2018-02-12T10:50:47.641Z,9.27
2018-02-12T10:53:14.254Z,10.00
2018-02-12T10:55:40.910Z,10.10
2018-02-12T10:58:07.554Z,8.98
2018-02-12T11:00:34.230Z,9.15
2018-02-12T11:03:00.834Z,9.40
2018-02-12T11:05:27.611Z,8.98
2018-02-12T11:07:54.250Z,9.85
2018-02-12T11:10:20.857Z,10.32
2018-02-12T11:12:47.497Z,9.25
2018-02-12T11:15:14.101Z,8.32
2018-02-12T11:17:40.710Z,8.57
2018-02-12T11:20:07.444Z,9.90
2018-02-12T11:22:34.055Z,8.38
2018-02-12T11:25:00.682Z,8.45
2018-02-12T11:27:27.292Z,7.62
2018-02-12T11:29:53.957Z,7.12
2018-02-12T11:32:20.576Z,7.62
2018-02-12T11:34:47.279Z,7.45
2018-02-12T11:37:13.876Z,7.80
2018-02-12T11:39:40.498Z,7.68
2018-02-12T11:42:07.109Z,7.15
2018-02-12T11:44:33.733Z,8.32
2018-02-12T11:47:00.349Z,8.82
2018-02-12T11:49:26.958Z,8.65
2018-02-12T11:51:53.569Z,8.05
2018-02-12T11:54:20.250Z,8.07
2018-02-12T11:56:46.863Z,7.45
2018-02-12T11:59:13.569Z,8.52
2018-02-12T12:01:40.310Z,7.70
2018-02-12T12:04:07.005Z,7.85
2018-02-12T12:06:33.610Z,7.82
2018-02-12T12:09:00.221Z,7.45
2018-02-12T12:11:26.930Z,6.85
2018-02-12T12:13:53.545Z,7.28
2018-02-12T12:16:20.248Z,7.62
2018-02-12T12:18:46.886Z,7.00
2018-02-12T12:21:13.525Z,7.12
2018-02-12T12:23:40.126Z,8.02
2018-02-12T12:26:06.767Z,8.20
2018-02-12T12:28:33.377Z,7.32
2018-02-12T12:30:59.974Z,8.07
2018-02-12T12:33:26.692Z,7.10
2018-02-12T12:35:53.289Z,8.07
2018-02-12T12:38:19.958Z,8.52
2018-02-12T12:40:46.584Z,8.70
2018-02-12T12:43:13.194Z,5.53
2018-02-12T12:45:39.878Z,5.75
2018-02-12T12:48:06.492Z,4.68
2018-02-12T12:50:33.094Z,4.22
2018-02-12T12:52:59.712Z,5.20
2018-02-12T12:55:26.317Z,4.10
2018-02-12T12:57:52.925Z,5.57
2018-02-12T13:00:19.554Z,6.28
2018-02-12T13:02:46.288Z,6.00
2018-02-12T13:05:12.885Z,6.22
2018-02-12T13:07:39.505Z,5.30
2018-02-12T13:10:06.160Z,4.57
2018-02-12T13:12:32.844Z,4.65
2018-02-12T13:14:59.500Z,6.47
2018-02-12T13:17:26.224Z,5.18
2018-02-12T13:19:52.968Z,6.72
2018-02-12T13:22:19.661Z,6.70
2018-02-12T13:24:46.350Z,6.37
2018-02-12T13:27:12.961Z,7.40
2018-02-12T13:29:39.565Z,7.75
2018-02-12T13:32:06.170Z,8.40
2018-02-12T13:34:32.794Z,7.95
2018-02-12T13:36:59.501Z,10.43
2018-02-12T13:39:26.132Z,9.60
2018-02-12T13:41:52.770Z,10.50
2018-02-12T13:44:19.382Z,10.35
2018-02-12T13:46:46.065Z,9.07
2018-02-12T13:49:12.841Z,8.30
2018-02-12T13:51:39.478Z,8.65
2018-02-12T13:54:06.185Z,10.02
2018-02-12T13:56:32.813Z,9.52
2018-02-12T13:58:59.421Z,9.68
2018-02-12T14:01:26.102Z,10.10
2018-02-12T14:03:52.733Z,7.55
2018-02-12T14:06:19.417Z,10.15
2018-02-12T14:08:46.042Z,9.27
2018-02-12T14:11:12.649Z,9.57
2018-02-12T14:13:39.257Z,9.32
2018-02-12T14:16:05.975Z,8.80
2018-02-12T14:18:32.573Z,9.30
2018-02-12T14:20:59.252Z,8.60
2018-02-12T14:23:25.890Z,9.15
2018-02-12T14:25:52.492Z,8.80
2018-02-12T14:28:19.109Z,9.10
2018-02-12T14:30:45.721Z,9.75
2018-02-12T14:33:12.474Z,9.90
2018-02-12T14:35:39.082Z,9.35
2018-02-12T14:38:05.690Z,9.30
2018-02-12T14:40:32.297Z,9.68
2018-02-12T14:42:59.005Z,9.45
2018-02-12T14:45:25.600Z,9.60
2018-02-12T14:47:52.385Z,10.93
2018-02-12T14:50:19.085Z,10.00
2018-02-12T14:52:45.701Z,9.48
2018-02-12T14:55:12.413Z,9.93
2018-02-12T14:57:39.110Z,7.43
2018-02-12T15:00:06.441Z,9.43
2018-02-12T15:02:33.551Z,10.07
2018-02-12T15:05:00.265Z,10.10
2018-02-12T15:07:26.885Z,8.60
2018-02-12T15:09:53.533Z,9.73
2018-02-12T15:12:20.145Z,9.55
2018-02-12T15:14:46.754Z,10.30
2018-02-12T15:17:13.373Z,7.82
2018-02-12T15:19:40.019Z,10.48
2018-02-12T15:22:06.601Z,9.80
2018-02-12T15:24:33.301Z,10.27
2018-02-12T15:27:00.002Z,9.80
2018-02-12T15:29:26.641Z,10.25
2018-02-12T15:31:53.280Z,8.85
2018-02-12T15:34:19.961Z,9.32
2018-02-12T15:36:46.665Z,8.25
2018-02-12T15:39:13.287Z,8.38
2018-02-12T15:41:39.942Z,9.80
2018-02-12T15:44:06.545Z,9.20
2018-02-12T15:46:33.260Z,10.70
2018-02-12T15:48:59.865Z,9.85
2018-02-12T15:51:26.487Z,10.00
2018-02-12T15:53:53.176Z,10.23
2018-02-12T15:56:19.786Z,10.80
2018-02-12T15:58:46.414Z,9.45
2018-02-12T16:01:13.050Z,11.38
2018-02-12T16:03:39.681Z,11.80
2018-02-12T16:06:06.289Z,11.40
2018-02-12T16:08:32.915Z,10.85
2018-02-12T16:10:59.615Z,10.45
2018-02-12T16:13:26.233Z,11.10
2018-02-12T16:15:52.849Z,11.90
2018-02-12T16:18:19.482Z,10.85
2018-02-12T16:20:46.169Z,10.40
2018-02-12T16:23:12.790Z,11.85
2018-02-12T16:25:39.419Z,11.40
2018-02-12T16:28:06.123Z,13.65
2018-02-12T16:30:32.825Z,11.77
2018-02-12T16:32:59.446Z,11.85
2018-02-12T16:35:26.085Z,10.20
2018-02-12T16:37:52.707Z,13.27
2018-02-12T16:40:19.319Z,16.10
2018-02-12T16:42:45.957Z,15.85
2018-02-12T16:45:12.574Z,10.43
2018-02-12T16:47:39.195Z,14.43
2018-02-12T16:50:05.822Z,19.42
2018-02-12T16:52:32.437Z,14.13
2018-02-12T16:54:59.086Z,13.40
2018-02-12T16:57:25.770Z,12.77
2018-02-12T16:59:52.377Z,12.18
2018-02-12T17:02:19.030Z,12.70
2018-02-12T17:04:45.645Z,15.50
2018-02-12T17:07:12.262Z,12.63
2018-02-12T17:09:38.894Z,12.10
2018-02-12T17:12:05.585Z,12.23
2018-02-12T17:14:32.213Z,13.18
2018-02-12T17:16:58.865Z,12.73
2018-02-12T17:19:25.507Z,13.68
2018-02-12T17:21:52.125Z,14.87
2018-02-12T17:24:18.751Z,15.55
2018-02-12T17:26:45.382Z,15.10
2018-02-12T17:29:12.010Z,14.87
2018-02-12T17:31:38.624Z,15.30
2018-02-12T17:34:05.333Z,15.55
2018-02-12T17:36:31.973Z,14.60
2018-02-12T17:38:58.594Z,13.48
2018-02-12T17:41:25.231Z,13.45
2018-02-12T17:43:51.894Z,13.38
2018-02-12T17:46:18.505Z,15.13
2018-02-12T17:48:45.128Z,14.95
2018-02-12T17:51:11.809Z,15.48
2018-02-12T17:53:38.454Z,14.60
2018-02-12T17:56:05.090Z,14.15
2018-02-12T17:58:31.706Z,13.77
2018-02-12T18:00:58.330Z,11.95
2018-02-12T18:03:24.961Z,13.15
2018-02-12T18:05:51.645Z,13.43
2018-02-12T18:08:18.259Z,12.45
2018-02-12T18:10:44.926Z,13.25
2018-02-12T18:13:11.539Z,12.70
2018-02-12T18:15:38.196Z,13.95
2018-02-12T18:18:04.829Z,12.57
2018-02-12T18:20:31.452Z,13.43
2018-02-12T18:22:58.112Z,13.88
2018-02-12T18:25:24.751Z,13.55
2018-02-12T18:27:51.398Z,13.02
2018-02-12T18:30:18.010Z,13.55
2018-02-12T18:32:44.711Z,15.30
2018-02-12T18:35:11.317Z,13.98
2018-02-12T18:37:37.993Z,17.37
2018-02-12T18:40:04.619Z,15.80
2018-02-12T18:42:31.237Z,17.58
2018-02-12T18:44:57.848Z,17.92
2018-02-12T18:47:24.552Z,17.30
2018-02-12T18:49:51.875Z,20.00
2018-02-12T18:52:18.485Z,16.77
2018-02-12T18:54:45.117Z,16.70
2018-02-12T18:57:11.729Z,16.92
2018-02-12T18:59:38.430Z,17.48
2018-02-12T19:02:05.059Z,18.05
2018-02-12T19:04:31.673Z,18.50
2018-02-12T19:06:58.301Z,18.27
2018-02-12T19:09:24.981Z,19.73
2018-02-12T19:11:51.588Z,18.77
2018-02-12T19:14:18.227Z,18.75
2018-02-12T19:16:44.836Z,17.87
2018-02-12T19:19:11.449Z,20.60
2018-02-12T19:21:38.068Z,20.98
2018-02-12T19:24:04.710Z,21.05
2018-02-12T19:26:31.351Z,24.55
2018-02-12T19:28:57.969Z,22.13
2018-02-12T19:31:24.629Z,20.45
2018-02-12T19:33:51.256Z,25.40
2018-02-12T19:36:17.873Z,22.35
2018-02-12T19:38:44.486Z,20.02
2018-02-12T19:41:11.186Z,20.73
2018-02-12T19:43:37.828Z,19.40
2018-02-12T19:46:04.444Z,21.77
2018-02-12T19:48:31.077Z,19.00
2018-02-12T19:50:57.705Z,18.70
2018-02-12T19:53:24.317Z,19.08
2018-02-12T19:55:51.027Z,17.10
2018-02-12T19:58:17.657Z,17.83
2018-02-12T20:00:44.298Z,17.40
2018-02-12T20:03:10.909Z,16.75
2018-02-12T20:05:37.528Z,15.02
2018-02-12T20:08:04.214Z,16.12
2018-02-12T20:10:30.825Z,15.10
2018-02-12T20:12:57.499Z,16.62
2018-02-12T20:15:24.125Z,15.70
2018-02-12T20:17:50.770Z,17.27
2018-02-12T20:20:17.411Z,17.40
2018-02-12T20:22:44.049Z,18.65
2018-02-12T20:25:10.666Z,16.77
2018-02-12T20:27:37.293Z,17.12
2018-02-12T20:30:03.952Z,16.85
2018-02-12T20:32:30.648Z,17.75
2018-02-12T20:34:57.350Z,21.40
2018-02-12T20:37:23.968Z,19.35
2018-02-12T20:39:50.625Z,20.08
2018-02-12T20:42:17.253Z,20.12
2018-02-12T20:44:43.905Z,23.50
2018-02-12T20:47:10.522Z,23.00
2018-02-12T20:49:37.154Z,21.65
2018-02-12T20:52:03.862Z,22.83
2018-02-12T20:54:30.562Z,20.45
2018-02-12T20:56:57.305Z,18.90
2018-02-12T20:59:23.918Z,18.90
2018-02-12T21:01:50.623Z,20.52
2018-02-12T21:04:17.326Z,18.20
2018-02-12T21:06:43.950Z,18.75
2018-02-12T21:09:10.605Z,17.75
2018-02-12T21:11:37.242Z,18.37
2018-02-12T21:14:03.881Z,20.42
2018-02-12T21:16:30.526Z,18.83
2018-02-12T21:18:57.261Z,20.02
2018-02-12T21:21:23.882Z,21.35
2018-02-12T21:23:50.498Z,17.77
2018-02-12T21:26:17.129Z,18.80
2018-02-12T21:28:43.812Z,20.50
2018-02-12T21:31:10.458Z,19.80
2018-02-12T21:33:37.192Z,21.75
2018-02-12T21:36:03.838Z,21.15
2018-02-12T21:38:30.577Z,20.35
2018-02-12T21:40:57.196Z,23.17
2018-02-12T21:43:23.852Z,22.48
2018-02-12T21:45:50.497Z,23.00
2018-02-12T21:48:17.133Z,29.00
2018-02-12T21:50:43.746Z,37.75
2018-02-12T21:53:10.369Z,26.52
2018-02-12T21:55:37.057Z,27.40
2018-02-12T21:58:03.834Z,27.27
2018-02-12T22:00:30.532Z,32.42
2018-02-12T22:02:57.145Z,23.00
2018-02-12T22:05:23.817Z,21.95
2018-02-12T22:07:50.462Z,21.85
2018-02-12T22:10:17.094Z,21.45
2018-02-12T22:12:43.738Z,21.40
2018-02-12T22:15:10.373Z,20.88
2018-02-12T22:17:37.112Z,23.92
2018-02-12T22:20:03.790Z,23.48
2018-02-12T22:22:30.396Z,22.08
2018-02-12T22:24:57.028Z,23.87
2018-02-12T22:27:23.670Z,23.40
2018-02-12T22:29:50.278Z,24.70
2018-02-12T22:32:16.909Z,23.58
2018-02-12T22:34:43.521Z,20.75
2018-02-12T22:37:10.137Z,22.13
2018-02-12T22:39:36.861Z,23.58
2018-02-12T22:42:03.548Z,20.90
2018-02-12T22:44:30.169Z,22.60
2018-02-12T22:46:56.886Z,21.30
2018-02-12T22:49:23.562Z,21.48
2018-02-12T22:51:50.189Z,22.52
2018-02-12T22:54:16.901Z,20.73
2018-02-12T22:56:43.541Z,22.73
2018-02-12T22:59:10.277Z,21.75
2018-02-12T23:01:36.885Z,21.67
2018-02-12T23:04:03.499Z,23.20
2018-02-12T23:06:30.202Z,24.67
2018-02-12T23:08:56.818Z,26.70
2018-02-12T23:11:23.425Z,24.87
2018-02-12T23:13:50.055Z,24.25
2018-02-12T23:16:16.920Z,26.55
2018-02-12T23:18:43.601Z,23.40
2018-02-12T23:21:10.280Z,25.45
2018-02-12T23:23:37.022Z,25.50
2018-02-12T23:26:03.721Z,25.35
2018-02-12T23:28:30.465Z,26.12
2018-02-12T23:30:57.105Z,26.90
2018-02-12T23:33:23.741Z,28.25
2018-02-12T23:35:50.369Z,27.35
2018-02-12T23:38:17.016Z,26.83
2018-02-12T23:40:43.701Z,27.55
2018-02-12T23:43:10.322Z,27.05
2018-02-12T23:45:36.937Z,27.52
2018-02-12T23:48:03.566Z,26.25
2018-02-12T23:50:30.181Z,26.55
2018-02-12T23:52:56.857Z,26.87
2018-02-12T23:55:23.474Z,26.40
2018-02-12T23:57:50.347Z,26.73
